Healdsburg, CA

2:29 PM PDT on September 20, 2014 (GMT -0700)
Sonoma County | Change Station
CLOSE
Current Station
Airport
Location: Santa Rosa,
Elevation: 125 ft
Nearby Weather Stations

Elev 125 ft 38.50 °N, 122.81 °W | Updated 36 minutes ago

Clear
Clear
72 °F
Feels Like 72 °F
N
7
Wind Variable Wind from South

Today
High -- | Low -- °F
--% Chance of Precip.
Yesterday
High -- | Low -- °F
Precip. -- in
6:57 AM 7:11 PM
Waning Crescent, 10% visible
Pressure 29.90 in
Visibility 10.0 miles
Clouds Clear
Dew Point 59 °F
Humidity 64%
Rainfall 0.00 in
Snow Depth 0 in , 0 in , 0 in
UV 8 out of 12
Pollen 4.00 out of 12
Air Quality Not available.
Flu Activity Not available.
METAR KSTS 202053Z 18006KT 10SM CLR 22/15 A2992 RMK AO2 SLP124 T02220150 58009

More Conditions Fewer Conditions

Pressure 29.90 in
Visibility 10.0 miles
Clouds Clear
Dew Point 59 °F
Humidity 64%
Rainfall 0.00 in
Snow Depth 0 in , 0 in , 0 in
UV 8 out of 12
Pollen 4.00 out of 12
Air Quality Not available.
Flu Activity Not available.
METAR KSTS 202053Z 18006KT 10SM CLR 22/15 A2992 RMK AO2 SLP124 T02220150 58009

More Conditions Fewer Conditions

10-Day Weather Forecast

Almanac

Astronomy

Sep. 20, 2014 Rise Set
Actual Time 6:57 AM PDT 7:11 PM PDT
Civil Twilight 6:30 AM PDT 7:37 PM PDT
Nautical Twilight 5:59 AM PDT 8:08 PM PDT
Astronomical Twilight 5:28 AM PDT 8:40 PM PDT
Moon 3:43 AM PDT 5:16 PM PDT
Length of Visible Light 13h 07m
Length of Day
12h 13m
Tomorrow will be 2m 29s shorter.
Waning Crescent, 10% of the Moon is Illuminated
Today
Waning Crescent
Sep 24
New
Oct 1
First Quarter
Oct 8
Full
Oct 15
Last Quarter

Today's Extremes

State Highs State Lows

Community

WunderPhotos

Upload Photos

1,754,947 photos uploaded!

WunderBlogs® & News

Nearby

Air Quality

  Air Quality AQ Index Pollutant
Saturday Moderate
PM2.5
Sunday Moderate
PM2.5
Monday Moderate
PM2.5
Tuesday Moderate
PM2.5
Wednesday Good
PM2.5
Thursday Good
OZONE

Snow Depth

Station Depth Elevation
Summit Meadow 0 in 9122 ft
CSS Lab 0 in 6900 ft
Adin Mountain 0 in 6200 ft
Leavitt Meadows 0 in 7200 ft
Burnside Lake 0 in 8139 ft

Earthquake Activity

City Distance Mag. Time & Date
Livermore, California 89 miles 2.6 3:37 AM PDT
2014-09-19
The Geysers, California 12 miles 2.5 11:29 PM PDT
2014-09-17
Minimum magnitude displayed is 2.5.

Coastal Water Temperatures

Place Temperature
Point Reyes, CA 64.9 °F
Arena Cove, CA 62.1 °F
San Francisco, CA 64.9 °F
Richmond, CA 68.0 °F

Nearby Weather Stations